createdAt,value
2016-05-09T00:00:21.606Z,85.62
2016-05-09T00:01:43.796Z,85.05
2016-05-09T00:02:56.832Z,86.1
2016-05-09T00:04:06.709Z,86.47
2016-05-09T00:05:26.557Z,86.29
2016-05-09T00:06:28.404Z,86.47
2016-05-09T00:07:58.157Z,86.29
2016-05-09T00:09:26.350Z,86.67
2016-05-09T00:11:15.589Z,86.76
2016-05-09T00:12:45.061Z,86.38
2016-05-09T00:14:03.173Z,84.77
2016-05-09T00:15:45.381Z,85.15
2016-05-09T00:17:25.261Z,86.29
2016-05-09T00:18:26.389Z,86.29
2016-05-09T00:19:26.361Z,86.29
2016-05-09T00:21:27.195Z,87.52
2016-05-09T00:22:26.713Z,87.34
2016-05-09T00:24:26.108Z,87.43
2016-05-09T00:25:27.518Z,87.81
2016-05-09T00:26:28.567Z,88.47
2016-05-09T00:27:27.117Z,88.47
2016-05-09T00:30:26.454Z,88.47
2016-05-09T00:31:27.549Z,88.57
2016-05-09T00:32:26.755Z,88.57
2016-05-09T00:33:26.258Z,88
2016-05-09T00:34:27.526Z,87.9
2016-05-09T00:35:27.045Z,87.9
2016-05-09T00:36:27.313Z,88
2016-05-09T00:37:25.940Z,88
2016-05-09T00:38:26.162Z,88.09
2016-05-09T00:39:27.587Z,88.57
2016-05-09T00:40:26.340Z,88.76
2016-05-09T00:42:26.157Z,88.19
2016-05-09T00:43:28.004Z,88
2016-05-09T00:44:27.538Z,88.38
2016-05-09T00:45:27.899Z,88.38
2016-05-09T00:46:26.184Z,88.09
2016-05-09T00:47:27.374Z,89.14
2016-05-09T00:48:26.267Z,89.61
2016-05-09T00:49:27.363Z,89.23
2016-05-09T00:50:26.961Z,88.67
2016-05-09T00:51:27.369Z,87.71
2016-05-09T00:53:26.015Z,87.34
2016-05-09T00:54:26.502Z,87.14
2016-05-09T00:55:27.146Z,87.43
2016-05-09T00:56:26.507Z,88.67
2016-05-09T00:57:26.541Z,88.76
2016-05-09T00:58:26.825Z,89.14
2016-05-09T00:59:26.578Z,88.38
2016-05-09T01:00:27.143Z,88.19
2016-05-09T01:01:26.130Z,88.76
2016-05-09T01:02:27.227Z,88.85
2016-05-09T01:03:25.932Z,88
2016-05-09T01:04:26.576Z,88.76
2016-05-09T01:05:26.141Z,88.57
2016-05-09T01:06:27.018Z,88.34
2016-05-09T01:07:27.209Z,89
2016-05-09T01:08:27.117Z,88.81
2016-05-09T01:09:25.652Z,89.47
2016-05-09T01:10:27.140Z,88.81
2016-05-09T01:11:26.423Z,88.53
2016-05-09T01:12:26.941Z,88.62
2016-05-09T01:13:27.740Z,89.19
2016-05-09T01:15:26.684Z,89.09
2016-05-09T01:16:26.765Z,89.67
2016-05-09T01:17:26.173Z,89.09
2016-05-09T01:18:27.020Z,89.09
2016-05-09T01:19:27.975Z,89.28
2016-05-09T01:20:25.791Z,89.38
2016-05-09T01:22:27.500Z,90.61
2016-05-09T01:23:26.580Z,90.14
2016-05-09T01:24:26.708Z,90.14
2016-05-09T01:25:25.819Z,89.95
2016-05-09T01:26:25.900Z,90.14
2016-05-09T01:27:25.997Z,90.14
2016-05-09T01:29:25.940Z,90.33
2016-05-09T01:30:25.708Z,90.42
2016-05-09T01:31:25.679Z,90.23
2016-05-09T01:33:26.607Z,91.75
2016-05-09T01:34:25.641Z,91.75
2016-05-09T01:35:25.674Z,92.32
2016-05-09T01:36:25.334Z,92.42
2016-05-09T01:37:25.429Z,92.42
2016-05-09T01:38:27.965Z,91.56
2016-05-09T01:39:27.077Z,91.28
2016-05-09T01:40:25.329Z,91.19
2016-05-09T01:41:25.629Z,90.52
2016-05-09T01:42:25.928Z,90.8
2016-05-09T01:43:25.633Z,91.42
2016-05-09T01:44:26.871Z,91.33
2016-05-09T01:45:27.139Z,91.14
2016-05-09T01:46:25.626Z,90.38
2016-05-09T01:47:25.270Z,91.33
2016-05-09T01:48:25.819Z,91.89
2016-05-09T01:49:26.416Z,92.18
2016-05-09T01:50:26.433Z,92.56
2016-05-09T01:51:26.422Z,92.66
2016-05-09T01:52:26.408Z,92.75
2016-05-09T01:53:25.848Z,92.75
2016-05-09T01:56:26.700Z,92.09
2016-05-09T01:58:26.486Z,93.32
2016-05-09T01:59:26.052Z,93.23
2016-05-09T02:01:26.494Z,92.28
2016-05-09T02:02:26.169Z,92.28
2016-05-09T02:03:25.610Z,92.37
2016-05-09T02:04:26.378Z,92.66
2016-05-09T02:05:26.552Z,92.75
2016-05-09T02:06:26.554Z,93.32
2016-05-09T02:07:26.495Z,92.37
2016-05-09T02:08:26.358Z,92.37
2016-05-09T02:09:26.048Z,92.37
2016-05-09T02:10:26.269Z,92.66
2016-05-09T02:11:26.240Z,93.04
2016-05-09T02:12:25.556Z,93.04
2016-05-09T02:13:25.698Z,93.23
2016-05-09T02:14:25.187Z,93.04
2016-05-09T02:15:25.564Z,93.23
2016-05-09T02:16:25.348Z,93.89
2016-05-09T02:17:25.350Z,93.99
2016-05-09T02:18:25.494Z,94.18
2016-05-09T02:19:26.089Z,94.37
2016-05-09T02:20:25.795Z,93.8
2016-05-09T02:22:24.973Z,94.37
2016-05-09T02:23:25.373Z,94.56
2016-05-09T02:24:26.719Z,94.65
2016-05-09T02:25:25.300Z,94.65
2016-05-09T02:26:25.272Z,95.22
2016-05-09T02:27:25.494Z,95.31
2016-05-09T02:28:25.293Z,94.27
2016-05-09T02:29:24.842Z,94.27
2016-05-09T02:30:26.032Z,94.74
2016-05-09T02:31:25.207Z,94.6
2016-05-09T02:32:26.257Z,94.7
2016-05-09T02:33:26.151Z,94.89
2016-05-09T02:34:26.293Z,95.08
2016-05-09T02:35:25.953Z,94.51
2016-05-09T02:36:25.095Z,94.51
2016-05-09T02:37:25.098Z,94.93
2016-05-09T02:38:25.070Z,94.08
2016-05-09T02:39:26.214Z,94.03
2016-05-09T02:40:24.731Z,93.51
2016-05-09T02:42:25.862Z,94.18
2016-05-09T02:43:25.942Z,93.99
2016-05-09T02:45:25.167Z,93.41
2016-05-09T02:46:25.138Z,93.51
2016-05-09T02:47:25.031Z,93.99
2016-05-09T02:48:25.003Z,93.51
2016-05-09T02:49:25.537Z,93.99
2016-05-09T02:50:24.680Z,93.6
2016-05-09T02:51:24.980Z,93.41
2016-05-09T02:52:24.998Z,93.23
2016-05-09T02:53:24.860Z,92.75
2016-05-09T02:54:25.956Z,92.94
2016-05-09T02:55:25.866Z,93.51
2016-05-09T02:56:25.102Z,93.51
2016-05-09T02:57:24.855Z,93.13
2016-05-09T02:58:24.904Z,93.41
2016-05-09T02:59:25.314Z,93.13
2016-05-09T03:00:25.332Z,93.04
2016-05-09T03:01:25.835Z,93.23
2016-05-09T03:02:26.634Z,93.6
2016-05-09T03:03:25.543Z,93.89
2016-05-09T03:04:25.811Z,94.18
2016-05-09T03:05:25.095Z,94.18
2016-05-09T03:06:25.161Z,94.18
2016-05-09T03:07:25.351Z,94.42
2016-05-09T03:08:25.994Z,94.65
2016-05-09T03:09:25.935Z,94.18
2016-05-09T03:10:25.047Z,94.13
2016-05-09T03:11:24.752Z,94.27
2016-05-09T03:12:25.067Z,94.65
2016-05-09T03:13:25.289Z,94.56
2016-05-09T03:14:24.761Z,94.46
2016-05-09T03:15:25.919Z,94.93
2016-05-09T03:16:25.734Z,94.98
2016-05-09T03:17:25.534Z,94.74
2016-05-09T03:18:26.052Z,94.93
2016-05-09T03:19:25.789Z,95.03
2016-05-09T03:20:24.605Z,94.7
2016-05-09T03:21:25.920Z,94.93
2016-05-09T03:22:24.766Z,94.79
2016-05-09T03:23:25.582Z,94.7
2016-05-09T03:24:25.552Z,94.98
2016-05-09T03:25:24.649Z,95.07
2016-05-09T03:27:25.639Z,94.42
2016-05-09T03:28:24.689Z,94.51
2016-05-09T03:29:25.660Z,94.89
2016-05-09T03:30:24.304Z,94.23
2016-05-09T03:31:29.056Z,94.51
2016-05-09T03:32:46.340Z,93.84
2016-05-09T03:33:52.295Z,93.75
2016-05-09T03:35:05.455Z,94.32
2016-05-09T03:36:21.054Z,94.6
2016-05-09T03:37:31.384Z,94.42
2016-05-09T03:38:42.935Z,94.89
2016-05-09T03:39:55.343Z,95.36
2016-05-09T03:41:18.411Z,94.98
2016-05-09T03:42:41.883Z,94.7
2016-05-09T03:43:56.197Z,94.42
2016-05-09T03:45:08.404Z,94.03
2016-05-09T03:46:21.565Z,94.32
2016-05-09T03:47:42.474Z,93.65
2016-05-09T03:48:54.570Z,93.56
2016-05-09T03:51:07.638Z,93.65
2016-05-09T03:52:11.938Z,94.03
2016-05-09T03:53:20.677Z,94.23
2016-05-09T03:54:40.368Z,93.94
2016-05-09T03:55:56.386Z,93.65
2016-05-09T03:57:20.141Z,93.84
2016-05-09T03:58:32.113Z,93.37
2016-05-09T03:59:20.756Z,93.65
2016-05-09T04:00:21.353Z,94.23
2016-05-09T04:01:20.855Z,94.7
2016-05-09T04:02:21.124Z,94.42
2016-05-09T04:03:21.345Z,94.79
2016-05-09T04:04:21.395Z,94.6
2016-05-09T04:05:21.990Z,95.46
2016-05-09T04:06:22.385Z,94.51
2016-05-09T04:07:21.121Z,94.51
2016-05-09T04:08:21.781Z,94.79
2016-05-09T04:09:21.970Z,95.07
2016-05-09T04:10:21.520Z,94.79
2016-05-09T04:11:21.210Z,94.98
2016-05-09T04:13:21.310Z,96.22
2016-05-09T04:14:21.953Z,96.03
2016-05-09T04:15:21.752Z,95.84
2016-05-09T04:16:20.864Z,95.84
2016-05-09T04:17:21.258Z,96.88
2016-05-09T04:18:20.823Z,96.45
2016-05-09T04:19:21.904Z,95.74
2016-05-09T04:20:20.735Z,96.03
2016-05-09T04:21:21.674Z,96.08
2016-05-09T04:22:20.927Z,96.5
2016-05-09T04:23:21.727Z,96.36
2016-05-09T04:24:21.871Z,96.26
2016-05-09T04:25:21.311Z,96.26
2016-05-09T04:26:21.547Z,96.08
2016-05-09T04:27:21.910Z,96.74
2016-05-09T04:28:20.663Z,96.36
2016-05-09T04:29:21.290Z,96.08
2016-05-09T04:30:21.762Z,96.08
2016-05-09T04:31:21.811Z,96.83
2016-05-09T04:32:21.360Z,96.74
2016-05-09T04:33:20.879Z,96.17
2016-05-09T04:34:21.460Z,96.08
2016-05-09T04:35:20.571Z,96.17
2016-05-09T04:36:20.621Z,95.98
2016-05-09T04:37:21.171Z,96.64
2016-05-09T04:38:21.846Z,96.08
2016-05-09T04:39:21.520Z,96.74
2016-05-09T04:40:21.773Z,95.98
2016-05-09T04:41:21.775Z,95.89
2016-05-09T04:42:20.684Z,95.89
2016-05-09T04:43:22.812Z,96.6
2016-05-09T04:44:34.253Z,96.12
2016-05-09T04:45:48.459Z,96.31
2016-05-09T04:46:48.414Z,96.08
2016-05-09T04:47:46.807Z,96.22
2016-05-09T04:49:10.997Z,96.88
2016-05-09T04:50:32.940Z,96.79
2016-05-09T04:51:33.756Z,96.6
2016-05-09T04:52:56.117Z,96.79
2016-05-09T04:54:21.779Z,96.88
2016-05-09T04:55:40.126Z,96.79
2016-05-09T04:56:55.128Z,97.07
2016-05-09T04:58:05.131Z,97.36
2016-05-09T04:58:57.883Z,97.17
2016-05-09T21:38:21.916Z,80.71
2016-05-09T21:39:22.451Z,80.71
2016-05-09T21:40:22.734Z,81.18
2016-05-09T21:41:22.722Z,80.99
2016-05-09T21:42:22.584Z,81.56
2016-05-09T21:43:22.742Z,81.66
2016-05-09T21:44:22.620Z,81.37
2016-05-09T21:45:22.779Z,81.85
2016-05-09T21:46:21.875Z,81.66
2016-05-09T21:48:22.569Z,81.85
2016-05-09T21:49:21.915Z,81.81
2016-05-09T21:50:22.511Z,81.9
2016-05-09T21:51:21.827Z,81.95
2016-05-09T21:52:21.532Z,82.14
2016-05-09T21:53:22.363Z,82.19
2016-05-09T21:54:22.585Z,82
2016-05-09T21:55:22.743Z,82.14
2016-05-09T21:56:22.324Z,81.85
2016-05-09T21:57:22.593Z,82.67
2016-05-09T21:58:22.377Z,82.09
2016-05-09T21:59:22.895Z,82.67
2016-05-09T22:00:22.585Z,82.95
2016-05-09T22:01:22.697Z,82.09
2016-05-09T22:02:22.028Z,82.61
2016-05-09T22:03:22.906Z,82.7
2016-05-09T22:04:22.096Z,82.32
2016-05-09T22:05:22.426Z,81.9
2016-05-09T22:06:22.571Z,82.86
2016-05-09T22:07:22.979Z,83.23
2016-05-09T22:08:21.762Z,83.23
2016-05-09T22:09:22.468Z,82.57
2016-05-09T22:10:21.565Z,82.51
2016-05-09T22:11:21.474Z,82.86
2016-05-09T22:12:22.508Z,83.37
2016-05-09T22:13:21.417Z,82.86
2016-05-09T22:14:22.670Z,82.48
2016-05-09T22:15:22.579Z,82.95
2016-05-09T22:16:22.925Z,82.67
2016-05-09T22:17:22.600Z,82.48
2016-05-09T22:18:22.103Z,83.23
2016-05-09T22:19:21.355Z,83.04
2016-05-09T22:20:21.545Z,83.04
2016-05-09T22:21:21.580Z,82.95
2016-05-09T22:22:23.270Z,82.95
2016-05-09T22:23:22.225Z,83.04
2016-05-09T22:24:24.744Z,83.81
2016-05-09T22:25:22.590Z,83.52
2016-05-09T22:26:21.608Z,83.71
2016-05-09T22:27:22.080Z,83.71
2016-05-09T22:28:22.270Z,82.86
2016-05-09T22:29:22.336Z,83.71
2016-05-09T22:30:22.260Z,83.14
2016-05-09T22:31:22.793Z,83.42
2016-05-09T22:32:22.484Z,83.42
2016-05-09T22:33:21.971Z,83.42
2016-05-09T22:34:21.457Z,83.52
2016-05-09T22:35:21.898Z,83.23
2016-05-09T22:36:22.010Z,83.23
2016-05-09T22:37:23.388Z,83.14
2016-05-09T22:38:21.593Z,83.52
2016-05-09T22:39:22.378Z,83.04
2016-05-09T22:40:21.473Z,83.9
2016-05-09T22:41:25.476Z,83.23
2016-05-09T22:42:21.479Z,83.33
2016-05-09T22:43:21.935Z,83.23
2016-05-09T22:44:23.173Z,83.23
2016-05-09T22:45:22.925Z,83.42
2016-05-09T22:46:21.193Z,83.42
2016-05-09T22:47:22.478Z,82.95
2016-05-09T22:48:21.277Z,84
2016-05-09T22:49:20.889Z,84
2016-05-09T22:50:21.236Z,83.81
2016-05-09T22:51:21.801Z,83.62
2016-05-09T22:52:21.116Z,83.52
2016-05-09T22:53:21.244Z,83.81
2016-05-09T22:54:21.261Z,84
2016-05-09T22:55:22.421Z,84.38
2016-05-09T22:56:21.391Z,84.28
2016-05-09T22:57:21.129Z,84.56
2016-05-09T22:58:22.100Z,84.56
2016-05-09T22:59:21.385Z,84.24
2016-05-09T23:00:22.277Z,84.28
2016-05-09T23:01:22.358Z,84.33
2016-05-09T23:02:21.783Z,83.52
2016-05-09T23:03:21.942Z,83.86
2016-05-09T23:04:21.054Z,84.43
2016-05-09T23:05:22.026Z,84.14
2016-05-09T23:06:22.326Z,84.24
2016-05-09T23:07:21.984Z,84.81
2016-05-09T23:08:21.877Z,84.62
2016-05-09T23:09:21.754Z,84.81
2016-05-09T23:10:22.367Z,84.81
2016-05-09T23:11:21.870Z,85.1
2016-05-09T23:12:21.638Z,85
2016-05-09T23:13:22.048Z,85
2016-05-09T23:15:23.240Z,84.62
2016-05-09T23:16:22.195Z,84.72
2016-05-09T23:17:21.980Z,84.91
2016-05-09T23:18:21.514Z,84.91
2016-05-09T23:19:20.953Z,84.81
2016-05-09T23:20:22.363Z,84.72
2016-05-09T23:21:20.834Z,84.72
2016-05-09T23:22:21.009Z,85.19
2016-05-09T23:23:22.167Z,85.38
2016-05-09T23:24:22.108Z,85.28
2016-05-09T23:25:22.032Z,85.66
2016-05-09T23:26:21.255Z,85.47
2016-05-09T23:27:21.944Z,85.19
2016-05-09T23:28:21.494Z,85.76
2016-05-09T23:29:22.934Z,85.38
2016-05-09T23:30:21.030Z,85.38
2016-05-09T23:31:21.174Z,85.66
2016-05-09T23:32:21.754Z,85.66
2016-05-09T23:33:21.366Z,85.66
2016-05-09T23:34:22.447Z,86.14
2016-05-09T23:35:22.357Z,85.66
2016-05-09T23:36:21.047Z,85.57
2016-05-09T23:37:20.924Z,86.43
2016-05-09T23:38:21.098Z,86.05
2016-05-09T23:39:22.445Z,86.52
2016-05-09T23:40:20.854Z,86.24
2016-05-09T23:41:21.920Z,86.14
2016-05-09T23:42:21.031Z,86.52
2016-05-09T23:44:22.005Z,86.24
2016-05-09T23:45:32.399Z,87.38
2016-05-09T23:46:20.823Z,86.8
2016-05-09T23:47:20.951Z,87.38
2016-05-09T23:48:20.798Z,87.09
2016-05-09T23:49:21.035Z,86.14
2016-05-09T23:50:20.944Z,86.43
2016-05-09T23:52:21.136Z,86.9
2016-05-09T23:54:20.720Z,87.24
2016-05-09T23:55:21.036Z,86.67
2016-05-09T23:56:20.820Z,87.24
2016-05-09T23:57:20.963Z,87.34
2016-05-09T23:58:20.543Z,87.47
2016-05-09T23:59:20.686Z,86.67
